Time;durP1;ratioP1;P1;durP2;ratioP2;P2;SDS_P1;SDS_P2;PMS_P1;PMS_P2;Temp;Humidity;BMP_temperature;BMP_pressure;BME280_temperature;BME280_humidity;BME280_pressure;Samples;Min_cycle;Max_cycle;Signal;HPM_P1;HPM_P2
2022/05/21 00:00:15;;;;;;;9.33;4.70;;;;;;;18.04;60.56;99212.50;4236568;28;20238;-70
2022/05/21 00:02:41;;;;;;;10.90;5.10;;;;;;;18.12;60.36;99213.03;4256537;28;20236;-72
2022/05/21 00:05:09;;;;;;;9.80;4.63;;;;;;;18.13;60.87;99213.84;4241895;28;20234;-71
2022/05/21 00:07:36;;;;;;;11.90;5.00;;;;;;;18.07;62.18;99203.97;4244970;28;20327;-70
2022/05/21 00:10:05;;;;;;;12.43;4.70;;;;;;;18.13;62.17;99203.91;4250285;28;20903;-71
2022/05/21 00:12:32;;;;;;;9.93;4.73;;;;;;;18.17;62.86;99200.75;4229721;28;20413;-71
2022/05/21 00:14:59;;;;;;;13.63;5.50;;;;;;;18.30;60.51;99214.06;4246676;28;20238;-69
2022/05/21 00:17:26;;;;;;;14.07;5.90;;;;;;;18.41;60.50;99199.84;4232394;28;20231;-70
2022/05/21 00:19:52;;;;;;;15.30;5.30;;;;;;;18.39;61.07;99196.56;4237603;28;20236;-70
2022/05/21 00:22:19;;;;;;;12.93;5.80;;;;;;;18.43;61.51;99178.91;4260911;28;21784;-70
2022/05/21 00:24:46;;;;;;;13.43;5.57;;;;;;;18.53;61.39;99181.06;4234021;28;20335;-71
2022/05/21 00:27:12;;;;;;;9.53;5.30;;;;;;;18.56;62.13;99185.97;4239073;28;20286;-71
2022/05/21 00:29:39;;;;;;;15.80;6.43;;;;;;;18.52;62.35;99180.25;4254326;28;21958;-72
2022/05/21 00:32:06;;;;;;;11.80;6.87;;;;;;;18.42;65.83;99169.16;4230096;28;21864;-70
2022/05/21 00:34:34;;;;;;;8.37;5.53;;;;;;;18.41;64.60;99154.06;4240118;28;23022;-71
2022/05/21 00:37:02;;;;;;;10.57;5.77;;;;;;;18.43;64.97;99149.28;4249866;28;22781;-71
2022/05/21 00:39:29;;;;;;;17.80;6.47;;;;;;;18.39;66.69;99155.34;4251487;28;23329;-69
2022/05/21 00:41:56;;;;;;;12.27;5.70;;;;;;;18.25;66.66;99184.31;4227749;28;21970;-70
2022/05/21 00:44:22;;;;;;;12.30;5.93;;;;;;;18.32;67.61;99237.03;4231420;28;20237;-70
2022/05/21 00:46:49;;;;;;;15.47;6.50;;;;;;;18.22;68.27;99284.41;4244155;28;20337;-70
2022/05/21 00:49:21;;;;;;;17.40;7.63;;;;;;;18.01;72.90;99304.50;4227595;28;20675;-61
2022/05/21 00:51:54;;;;;;;20.53;8.97;;;;;;;17.29;80.01;99316.38;4237566;28;23087;-72
2022/05/21 00:54:23;;;;;;;19.00;7.80;;;;;;;16.73;82.10;99300.91;4237927;28;20257;-71
2022/05/21 00:57:21;;;;;;;15.00;8.10;;;;;;;16.16;86.75;99291.81;4226654;28;20306;-71
2022/05/21 01:00:00;;;;;;;12.97;8.60;;;;;;;15.74;91.48;99275.13;4238946;28;20706;-71
2022/05/21 01:02:32;;;;;;;16.70;9.53;;;;;;;15.41;95.93;99249.09;4245224;28;20227;-70
2022/05/21 01:05:02;;;;;;;16.17;10.40;;;;;;;15.30;98.55;99237.13;4238471;28;20263;-70
2022/05/21 01:07:29;;;;;;;19.87;11.70;;;;;;;15.05;100.00;99214.63;4235853;28;20238;-70
2022/05/21 01:09:57;;;;;;;18.27;12.40;;;;;;;14.93;100.00;99183.06;4227462;28;22169;-71
2022/05/21 01:12:26;;;;;;;21.87;12.70;;;;;;;14.86;100.00;99165.34;4230082;28;21617;-71
2022/05/21 01:14:56;;;;;;;27.40;13.27;;;;;;;14.91;100.00;99162.88;4261699;28;22814;-71
2022/05/21 01:17:23;;;;;;;23.23;13.73;;;;;;;14.96;100.00;99139.84;4241478;28;20231;-70
2022/05/21 01:20:08;;;;;;;20.80;12.87;;;;;;;14.97;100.00;99117.34;4230720;28;20427;-72
2022/05/21 01:22:43;;;;;;;19.30;13.23;;;;;;;14.88;100.00;99099.03;4236285;28;20223;-71
2022/05/21 01:25:12;;;;;;;26.20;15.20;;;;;;;14.86;100.00;99131.34;4245463;28;20316;-70
2022/05/21 01:27:39;;;;;;;23.83;14.27;;;;;;;14.98;100.00;99131.56;4252556;28;20223;-70
2022/05/21 01:30:08;;;;;;;20.13;13.97;;;;;;;14.88;100.00;99125.81;4252322;28;20323;-70
2022/05/21 01:32:35;;;;;;;22.83;14.73;;;;;;;14.87;100.00;99108.91;4238294;28;20241;-72
2022/05/21 01:35:03;;;;;;;21.10;15.10;;;;;;;14.89;100.00;99104.19;4240601;28;20234;-71
2022/05/21 01:37:31;;;;;;;22.77;14.40;;;;;;;14.82;100.00;99102.50;4243517;28;20229;-71
2022/05/21 01:39:58;;;;;;;23.57;15.23;;;;;;;14.88;100.00;99104.38;4235410;28;20298;-74
2022/05/21 01:42:24;;;;;;;24.73;14.50;;;;;;;15.00;100.00;99100.03;4242697;28;20280;-71
2022/05/21 01:44:53;;;;;;;19.53;14.13;;;;;;;15.12;100.00;99100.25;4241153;28;25246;-73
2022/05/21 01:47:20;;;;;;;22.93;15.10;;;;;;;15.02;100.00;99078.41;4244231;28;20699;-71
2022/05/21 01:49:47;;;;;;;20.73;14.97;;;;;;;14.98;100.00;99060.09;4225473;28;20514;-71
2022/05/21 01:52:14;;;;;;;27.27;16.57;;;;;;;14.84;100.00;99044.22;4243611;28;20313;-70
2022/05/21 01:54:41;;;;;;;23.03;16.07;;;;;;;14.82;100.00;99036.41;4264764;28;20373;-70
2022/05/21 01:57:09;;;;;;;24.67;15.37;;;;;;;14.90;100.00;99038.84;4240077;28;20312;-68
2022/05/21 01:59:36;;;;;;;19.43;14.73;;;;;;;14.91;100.00;99037.00;4230804;28;20241;-69
2022/05/21 02:02:03;;;;;;;23.37;16.90;;;;;;;14.99;100.00;99026.06;4241175;28;21062;-69
2022/05/21 02:04:30;;;;;;;22.40;15.83;;;;;;;15.00;100.00;99006.28;4239255;28;20716;-70
2022/05/21 02:06:57;;;;;;;27.83;17.47;;;;;;;14.81;100.00;99001.78;4241358;28;21903;-68
2022/05/21 02:09:24;;;;;;;28.87;17.67;;;;;;;14.76;100.00;98991.69;4232380;28;21011;-69
2022/05/21 02:11:50;;;;;;;23.83;17.37;;;;;;;14.80;100.00;99000.97;4240052;28;20226;-67
2022/05/21 02:14:17;;;;;;;23.10;16.87;;;;;;;14.77;100.00;98986.16;4244997;28;20687;-70
2022/05/21 02:16:43;;;;;;;27.77;18.43;;;;;;;14.65;100.00;98982.41;4239146;28;20225;-70
2022/05/21 02:19:10;;;;;;;28.23;19.10;;;;;;;14.63;100.00;98971.09;4239087;28;25336;-69
2022/05/21 02:21:38;;;;;;;35.37;20.40;;;;;;;14.59;100.00;98961.03;4251437;28;20325;-70
2022/05/21 02:24:06;;;;;;;28.80;19.03;;;;;;;14.57;100.00;98954.03;4234299;28;20237;-69
2022/05/21 02:26:36;;;;;;;29.07;20.00;;;;;;;14.48;100.00;98959.75;4228116;28;22286;-69
2022/05/21 02:29:03;;;;;;;27.90;19.30;;;;;;;14.57;100.00;98958.56;4240100;28;20238;-68
2022/05/21 02:31:30;;;;;;;29.50;20.57;;;;;;;14.55;100.00;98955.25;4235605;28;20255;-69
2022/05/21 02:33:57;;;;;;;26.83;19.87;;;;;;;14.55;100.00;98957.94;4243102;28;20240;-68
2022/05/21 02:39:25;;;;;;;31.03;21.27;;;;;;;14.56;100.00;98959.56;4230952;28;21299;-68
2022/05/21 02:39:26;;;;;;;26.87;20.23;;;;;;;14.65;100.00;98961.00;4245809;28;20241;-70
2022/05/21 02:41:52;;;;;;;31.33;19.93;;;;;;;14.72;100.00;98977.06;4242157;28;20243;-70
2022/05/21 02:44:19;;;;;;;27.67;19.67;;;;;;;14.83;100.00;98989.00;4233063;28;20233;-68
2022/05/21 02:46:46;;;;;;;33.10;19.60;;;;;;;14.88;100.00;98994.56;4237867;28;20231;-69
2022/05/21 02:49:12;;;;;;;33.57;20.17;;;;;;;15.00;100.00;98995.56;4240341;28;25832;-70
2022/05/21 02:51:39;;;;;;;31.17;18.97;;;;;;;15.06;100.00;98986.69;4238253;28;20235;-69
2022/05/21 02:54:06;;;;;;;27.33;18.77;;;;;;;15.03;100.00;98984.44;4238375;28;20741;-68
2022/05/21 02:56:35;;;;;;;33.10;19.80;;;;;;;15.05;100.00;98982.34;4245484;28;20427;-69
2022/05/21 02:59:06;;;;;;;31.50;20.43;;;;;;;14.93;100.00;98976.81;4217881;28;20308;-69
2022/05/21 03:01:33;;;;;;;34.73;20.00;;;;;;;14.94;100.00;98981.16;4225682;28;21504;-69
2022/05/21 03:04:01;;;;;;;29.80;19.23;;;;;;;15.07;100.00;98982.97;4239359;28;20224;-69
2022/05/21 03:06:27;;;;;;;30.27;19.93;;;;;;;15.16;100.00;98989.75;4231817;28;20233;-69
2022/05/21 03:11:39;;;;;;;37.80;24.00;;;;;;;15.28;100.00;98986.44;4231904;28;22086;-68
2022/05/21 03:14:06;;;;;;;28.83;20.57;;;;;;;15.27;100.00;98982.13;4240097;28;20237;-69
2022/05/21 03:16:33;;;;;;;30.27;19.53;;;;;;;15.26;100.00;98970.56;4237825;28;20336;-68
2022/05/21 03:18:59;;;;;;;30.77;20.03;;;;;;;15.29;100.00;98972.84;4235496;28;21368;-69
2022/05/21 03:21:26;;;;;;;29.43;18.10;;;;;;;15.29;100.00;98967.47;4235464;28;20350;-70
2022/05/21 03:23:52;;;;;;;36.70;22.67;;;;;;;15.25;100.00;98957.38;4219460;28;21747;-70
2022/05/21 03:26:19;;;;;;;26.17;19.00;;;;;;;15.32;100.00;98955.50;4236066;28;26631;-69
2022/05/21 03:28:46;;;;;;;28.73;18.93;;;;;;;15.35;100.00;98960.44;4239537;28;20222;-71
2022/05/21 03:31:12;;;;;;;28.70;20.00;;;;;;;15.35;100.00;98960.44;4240803;28;20233;-72
2022/05/21 03:33:39;;;;;;;31.33;20.20;;;;;;;15.32;100.00;98955.50;4221396;28;20237;-69
2022/05/21 03:36:06;;;;;;;34.53;21.40;;;;;;;15.30;100.00;98955.69;4232822;28;20674;-68
2022/05/21 03:38:33;;;;;;;31.90;20.97;;;;;;;15.32;100.00;98955.50;4228778;28;20438;-69
2022/05/21 03:41:00;;;;;;;31.77;21.70;;;;;;;15.18;100.00;98947.50;4241883;28;20717;-69
2022/05/21 03:43:27;;;;;;;31.90;22.43;;;;;;;15.29;100.00;98945.19;4256746;28;20237;-69
2022/05/21 03:45:53;;;;;;;31.60;21.43;;;;;;;15.34;100.00;98962.28;4259367;28;20228;-69
2022/05/21 03:48:20;;;;;;;32.33;23.17;;;;;;;15.40;100.00;98961.44;4239789;28;20228;-68
2022/05/21 03:50:47;;;;;;;32.67;21.63;;;;;;;15.37;100.00;98969.91;4250266;28;20239;-69
2022/05/21 03:53:15;;;;;;;33.67;24.00;;;;;;;15.29;100.00;98971.97;4222038;28;20270;-70
2022/05/21 03:55:42;;;;;;;36.97;25.20;;;;;;;15.22;100.00;98973.88;4257726;28;20464;-70
2022/05/21 03:58:08;;;;;;;39.03;27.13;;;;;;;15.13;100.00;98976.78;4245048;28;21532;-69
2022/05/21 04:00:38;;;;;;;43.93;26.93;;;;;;;15.09;100.00;98977.41;4244245;28;21240;-69
2022/05/21 04:03:05;;;;;;;41.57;27.63;;;;;;;14.93;100.00;98951.91;4237050;28;21258;-70
2022/05/21 04:05:32;;;;;;;48.77;30.77;;;;;;;14.88;100.00;98943.69;4238426;28;20232;-70
2022/05/21 04:07:59;;;;;;;45.70;30.87;;;;;;;15.00;100.00;98968.78;4227617;28;20304;-69
2022/05/21 04:10:25;;;;;;;50.37;31.10;;;;;;;15.05;100.00;98960.94;4252326;28;20250;-69
2022/05/21 04:12:52;;;;;;;50.80;31.43;;;;;;;14.98;100.00;98954.75;4231970;28;20343;-69
2022/05/21 04:15:18;;;;;;;53.27;31.30;;;;;;;15.14;100.00;98959.66;4240992;28;20253;-71
2022/05/21 04:17:45;;;;;;;42.17;30.17;;;;;;;15.16;100.00;98959.47;4234180;28;20367;-69
2022/05/21 04:20:15;;;;;;;44.37;30.83;;;;;;;15.05;100.00;98958.25;4250426;28;20299;-70
2022/05/21 04:22:43;;;;;;;48.53;31.33;;;;;;;15.00;100.00;98955.38;4242447;28;21872;-70
2022/05/21 04:25:10;;;;;;;47.90;31.70;;;;;;;15.01;100.00;98957.03;4240241;28;20232;-69
2022/05/21 04:27:39;;;;;;;55.37;31.83;;;;;;;15.07;100.00;98958.03;4249917;28;21308;-70
2022/05/21 04:30:09;;;;;;;43.13;30.47;;;;;;;15.07;100.00;98966.09;4237080;28;20721;-69
2022/05/21 04:32:36;;;;;;;45.20;28.33;;;;;;;15.08;100.00;98965.88;4247054;28;20468;-70
2022/05/21 04:35:04;;;;;;;41.97;28.77;;;;;;;15.01;100.00;98969.59;4241036;28;20258;-69
2022/05/21 04:37:30;;;;;;;38.60;26.23;;;;;;;15.07;100.00;98968.75;4244146;28;20464;-69
2022/05/21 04:39:57;;;;;;;39.73;26.80;;;;;;;14.91;100.00;98964.69;4267158;28;20247;-70
2022/05/21 04:42:23;;;;;;;39.33;25.53;;;;;;;14.92;100.00;98971.69;4254543;28;21717;-68
2022/05/21 04:44:50;;;;;;;37.53;27.00;;;;;;;14.89;100.00;98969.41;4233588;28;20227;-70
2022/05/21 04:47:17;;;;;;;42.23;27.33;;;;;;;14.84;100.00;98963.88;4240475;28;21797;-70
2022/05/21 04:49:43;;;;;;;41.23;27.13;;;;;;;14.97;100.00;98963.84;4228638;28;20235;-70
2022/05/21 04:52:10;;;;;;;43.00;27.93;;;;;;;14.96;100.00;98959.50;4235411;28;21836;-70
2022/05/21 04:54:37;;;;;;;42.83;28.80;;;;;;;15.07;100.00;98969.59;4235221;28;20977;-69
2022/05/21 04:57:04;;;;;;;40.93;28.30;;;;;;;15.02;100.00;98960.53;4249530;28;21334;-68
2022/05/21 04:59:32;;;;;;;47.10;29.10;;;;;;;15.10;100.00;98962.97;4238614;28;20227;-70
2022/05/21 05:01:58;;;;;;;40.07;28.07;;;;;;;15.15;100.00;98968.56;4255497;28;20380;-69
2022/05/21 05:04:25;;;;;;;46.27;29.00;;;;;;;15.24;100.00;98958.41;4243547;28;21905;-69
2022/05/21 05:06:52;;;;;;;41.87;28.10;;;;;;;15.17;100.00;98969.97;4247897;28;20790;-72
2022/05/21 05:09:23;;;;;;;42.37;26.57;;;;;;;15.09;100.00;98953.31;4233915;28;20240;-69
2022/05/21 05:11:51;;;;;;;35.37;26.30;;;;;;;15.04;100.00;98964.66;4249355;28;26372;-69
2022/05/21 05:14:18;;;;;;;36.80;26.03;;;;;;;15.07;100.00;98963.41;4251465;28;20369;-70
2022/05/21 05:16:45;;;;;;;39.60;27.13;;;;;;;15.01;100.00;98954.38;4272910;28;21590;-70
2022/05/21 05:19:17;;;;;;;34.53;24.33;;;;;;;14.94;100.00;98964.28;4283903;28;20664;-69
2022/05/21 05:21:44;;;;;;;34.60;24.93;;;;;;;14.99;100.00;98962.59;4250254;28;20235;-69
2022/05/21 05:24:11;;;;;;;31.03;23.83;;;;;;;14.99;100.00;98967.16;4260269;28;24993;-70
2022/05/21 05:26:37;;;;;;;38.10;25.43;;;;;;;15.04;100.00;98964.66;4247923;28;20870;-70
2022/05/21 05:29:05;;;;;;;37.77;26.40;;;;;;;15.06;100.00;98975.16;4243052;28;22079;-69
2022/05/21 05:31:32;;;;;;;37.90;26.60;;;;;;;15.03;100.00;98959.50;4253326;28;20227;-70
2022/05/21 05:33:59;;;;;;;35.33;24.20;;;;;;;15.06;100.00;98975.16;4245747;28;20773;-69
2022/05/21 05:36:26;;;;;;;35.00;24.23;;;;;;;15.09;100.00;98972.88;4250246;28;20752;-71
2022/05/21 05:38:53;;;;;;;37.90;24.17;;;;;;;15.05;100.00;98971.66;4240137;28;20251;-69
2022/05/21 05:41:19;;;;;;;32.77;23.57;;;;;;;15.06;100.00;98962.59;4245537;28;21844;-70
2022/05/21 05:43:53;;;;;;;33.77;23.93;;;;;;;14.98;100.00;98960.97;4256867;28;22337;-68
2022/05/21 05:46:20;;;;;;;36.13;22.90;;;;;;;15.03;100.00;98962.16;4240688;28;20247;-68
2022/05/21 05:48:48;;;;;;;32.40;22.33;;;;;;;15.02;100.00;98964.03;4258217;28;22810;-72
2022/05/21 05:51:16;;;;;;;29.27;22.10;;;;;;;15.03;100.00;98960.34;4232756;28;22976;-72
2022/05/21 05:53:45;;;;;;;32.43;22.57;;;;;;;15.03;100.00;98963.03;4249771;28;21447;-70
2022/05/21 05:56:12;;;;;;;32.60;22.83;;;;;;;14.97;100.00;98959.31;4243665;28;20372;-68
2022/05/21 06:01:25;;;;;;;36.17;23.80;;;;;;;15.18;100.00;98966.25;4249810;28;22524;-70
2022/05/21 06:03:53;;;;;;;34.93;23.80;;;;;;;15.25;100.00;98970.78;4238008;28;20231;-70
2022/05/21 06:06:20;;;;;;;35.13;24.10;;;;;;;15.34;100.00;98972.19;4231689;28;20234;-69
2022/05/21 06:08:47;;;;;;;32.57;24.10;;;;;;;15.38;100.00;98976.06;4243251;28;20245;-69
2022/05/21 06:11:14;;;;;;;34.03;22.33;;;;;;;15.44;100.00;98975.25;4253517;28;23215;-69
2022/05/21 06:13:42;;;;;;;29.40;20.57;;;;;;;15.52;100.00;98980.38;4255844;28;20328;-71
2022/05/21 06:16:08;;;;;;;30.20;22.17;;;;;;;15.51;100.00;98972.53;4251516;28;21435;-69
2022/05/21 06:18:40;;;;;;;27.97;20.80;;;;;;;15.56;100.00;98973.53;4241010;28;20898;-70
2022/05/21 06:21:07;;;;;;;30.80;21.03;;;;;;;15.28;100.00;98970.34;4240149;28;20252;-72
2022/05/21 06:23:34;;;;;;;30.83;20.13;;;;;;;15.27;100.00;98960.69;4230280;28;21017;-71
2022/05/21 06:26:01;;;;;;;28.77;20.63;;;;;;;15.26;100.00;98961.69;4222429;28;20405;-71
2022/05/21 06:28:30;;;;;;;26.67;19.00;;;;;;;15.26;100.00;98961.69;4237748;28;21571;-69
2022/05/21 06:30:57;;;;;;;26.20;19.13;;;;;;;15.30;100.00;98968.28;4232310;28;20300;-71
2022/05/21 06:33:27;;;;;;;24.20;18.00;;;;;;;15.35;100.00;98961.25;4247433;28;20306;-70
2022/05/21 06:36:11;;;;;;;29.77;18.67;;;;;;;15.39;100.00;98970.50;4237545;28;20270;-69
2022/05/21 06:38:39;;;;;;;25.80;17.73;;;;;;;15.45;100.00;98984.09;4225188;28;20292;-70
2022/05/21 06:41:06;;;;;;;23.50;16.23;;;;;;;15.48;100.00;98987.19;4260604;28;20237;-70
2022/05/21 06:43:33;;;;;;;15.83;12.43;;;;;;;15.45;100.00;98989.47;4252118;28;20235;-70
2022/05/21 06:45:59;;;;;;;17.97;10.80;;;;;;;15.78;100.00;99016.16;4247543;28;21944;-70
2022/05/21 06:48:26;;;;;;;11.57;6.60;;;;;;;15.77;100.00;99004.63;4276284;28;20904;-70
2022/05/21 06:50:53;;;;;;;6.00;3.93;;;;;;;16.87;100.00;99012.34;4260373;28;20239;-70
2022/05/21 06:53:20;;;;;;;4.77;3.23;;;;;;;17.72;92.48;99029.63;4265487;28;25417;-70
2022/05/21 06:55:47;;;;;;;8.63;2.90;;;;;;;18.20;90.01;99039.59;4308745;28;20290;-70
2022/05/21 06:58:14;;;;;;;10.07;2.90;;;;;;;17.86;90.70;99041.06;4256120;28;21227;-68
2022/05/21 07:00:43;;;;;;;9.27;2.70;;;;;;;17.88;89.41;99047.06;4276842;28;22898;-70
2022/05/21 07:03:10;;;;;;;7.20;2.87;;;;;;;18.26;86.80;99054.84;4242422;28;20273;-70
2022/05/21 07:08:26;;;;;;;5.17;2.80;;;;;;;17.92;87.01;99069.78;4273003;28;20367;-70
2022/05/21 07:10:53;;;;;;;7.47;2.37;;;;;;;17.39;88.69;99073.84;4263481;28;20233;-72
2022/05/21 07:13:22;;;;;;;9.90;2.33;;;;;;;16.72;90.69;99054.81;4271054;28;20361;-69
2022/05/21 07:15:49;;;;;;;3.60;2.10;;;;;;;16.56;90.78;99063.41;4276257;28;20240;-71
2022/05/21 07:18:18;;;;;;;3.77;1.97;;;;;;;16.42;90.93;99074.22;4248369;28;20361;-69
2022/05/21 07:20:45;;;;;;;4.10;2.10;;;;;;;16.22;92.27;99084.25;4269787;28;25606;-71
2022/05/21 07:23:12;;;;;;;2.40;1.50;;;;;;;16.03;92.61;99086.81;4257572;28;20325;-69
2022/05/21 07:25:40;;;;;;;14.77;2.63;;;;;;;15.82;91.56;99087.13;4272487;28;22311;-70
2022/05/21 07:28:08;;;;;;;6.03;1.50;;;;;;;15.63;90.65;99095.00;4260895;28;21805;-69
2022/05/21 07:30:35;;;;;;;3.77;1.47;;;;;;;15.40;90.26;99097.31;4266573;28;20242;-70
2022/05/21 07:33:02;;;;;;;5.90;1.30;;;;;;;15.22;89.98;99100.66;4249974;28;20297;-70
2022/05/21 07:35:29;;;;;;;4.67;1.10;;;;;;;15.18;89.20;99107.47;4238924;28;20230;-71
2022/05/21 07:37:56;;;;;;;7.70;1.50;;;;;;;15.08;89.90;99112.44;4288867;28;20233;-70
2022/05/21 07:40:26;;;;;;;6.77;1.30;;;;;;;14.98;89.72;99115.50;4246633;28;20425;-71
2022/05/21 07:42:53;;;;;;;5.17;1.40;;;;;;;15.05;90.15;99115.50;4247436;28;20239;-66
2022/05/21 07:45:21;;;;;;;3.40;1.40;;;;;;;14.95;91.29;99118.59;4275752;28;20230;-69
2022/05/21 07:47:52;;;;;;;2.40;1.23;;;;;;;14.95;90.04;99123.94;4255997;28;22803;-70
2022/05/21 07:50:20;;;;;;;3.13;1.30;;;;;;;14.87;90.82;99125.00;4248910;28;20407;-71
2022/05/21 07:52:46;;;;;;;6.17;1.40;;;;;;;14.82;89.09;99140.00;4243020;28;23059;-69
2022/05/21 07:55:14;;;;;;;3.87;0.90;;;;;;;14.79;87.63;99133.19;4256700;28;22632;-71
2022/05/21 07:57:40;;;;;;;8.37;0.87;;;;;;;14.89;86.15;99139.00;4257402;28;20238;-77
2022/05/21 08:00:09;;;;;;;4.33;1.10;;;;;;;14.83;85.79;99139.81;4300466;28;20347;-68
2022/05/21 08:02:40;;;;;;;8.97;1.30;;;;;;;14.76;84.92;99129.09;4259514;28;21790;-68
2022/05/21 08:05:07;;;;;;;5.87;1.00;;;;;;;14.72;85.04;99140.41;4279724;28;20248;-71
2022/05/21 08:07:34;;;;;;;8.93;1.13;;;;;;;14.66;85.53;99139.38;4272506;28;22515;-67
2022/05/21 08:10:02;;;;;;;11.13;1.27;;;;;;;14.70;83.45;99134.44;4241889;28;20387;-68
2022/05/21 08:12:29;;;;;;;4.70;1.50;;;;;;;14.63;84.92;99147.81;4241210;28;20234;-70
2022/05/21 08:14:55;;;;;;;4.43;0.90;;;;;;;14.59;84.80;99151.94;4262136;28;20223;-72
2022/05/21 08:17:22;;;;;;;4.57;1.17;;;;;;;14.60;83.51;99161.59;4254300;28;20234;-72
2022/05/21 08:19:49;;;;;;;2.60;1.03;;;;;;;14.61;83.17;99184.69;4255831;28;20261;-70
2022/05/21 08:27:46;;;;;;;4.33;0.80;;;;;;;14.70;82.12;99185.31;4269778;28;20246;-71
2022/05/21 08:30:13;;;;;;;5.20;0.90;;;;;;;14.86;78.69;99189.47;4269394;28;25984;-74
2022/05/21 08:32:42;;;;;;;6.97;1.53;;;;;;;14.88;77.08;99163.31;4255652;28;20579;-70
2022/05/21 08:35:09;;;;;;;9.83;0.77;;;;;;;14.82;76.98;99206.97;4260943;28;20238;-69
2022/05/21 08:37:36;;;;;;;6.23;1.00;;;;;;;14.77;77.21;99194.19;4254278;28;20238;-71
2022/05/21 08:40:04;;;;;;;5.60;1.00;;;;;;;14.69;77.62;99208.59;4246450;28;20277;-72
2022/05/21 08:42:39;;;;;;;4.67;0.70;;;;;;;14.64;77.20;99205.69;4290791;28;20239;-68
2022/05/21 08:46:00;;;;;;;2.57;0.83;;;;;;;14.63;77.06;99220.09;4303025;28;20234;-69
2022/05/21 08:48:29;;;;;;;5.23;0.80;;;;;;;14.59;78.39;99228.75;4241688;28;20232;-70
2022/05/21 08:50:55;;;;;;;5.13;1.10;;;;;;;14.48;78.84;99220.22;4263926;28;20233;-74
2022/05/21 08:53:25;;;;;;;3.33;0.90;;;;;;;14.54;76.93;99229.34;4274819;28;22004;-71
2022/05/21 08:55:54;;;;;;;5.00;0.90;;;;;;;14.66;76.44;99214.34;4277134;28;20274;-71
2022/05/21 08:58:45;;;;;;;6.13;1.20;;;;;;;15.17;74.45;99202.28;4271532;28;20971;-68
2022/05/21 09:01:18;;;;;;;3.17;0.87;;;;;;;15.63;70.34;99218.34;4270871;28;21073;-68
2022/05/21 09:03:46;;;;;;;4.27;1.23;;;;;;;15.96;69.03;99212.13;4324531;28;21194;-69
2022/05/21 09:06:19;;;;;;;7.93;0.70;;;;;;;15.89;65.88;99230.13;4255234;28;22629;-68
2022/05/21 09:09:10;;;;;;;8.13;0.60;;;;;;;15.86;65.33;99206.41;4273071;28;20231;-67
2022/05/21 09:11:43;;;;;;;7.23;0.90;;;;;;;15.67;63.24;99208.03;4296076;28;20291;-69
2022/05/21 09:14:25;;;;;;;7.70;1.00;;;;;;;15.65;64.41;99212.78;4246530;28;22669;-67
2022/05/21 09:16:55;;;;;;;2.13;0.80;;;;;;;15.49;64.40;99235.47;4263999;28;20556;-68
2022/05/21 09:19:23;;;;;;;5.10;0.70;;;;;;;15.53;65.27;99233.22;4263859;28;21287;-69
2022/05/21 09:21:56;;;;;;;7.83;0.80;;;;;;;15.54;66.67;99230.31;4272668;28;20235;-68
2022/05/21 09:24:59;;;;;;;8.47;0.80;;;;;;;15.54;67.61;99227.63;4278943;28;21846;-69
2022/05/21 09:27:28;;;;;;;3.63;1.03;;;;;;;15.74;68.55;99227.66;4268446;28;20242;-69
2022/05/21 09:30:17;;;;;;;6.40;1.07;;;;;;;15.80;68.96;99242.94;4282075;28;26057;-69
2022/05/21 09:32:52;;;;;;;4.30;0.83;;;;;;;16.00;69.22;99239.38;4302435;28;21081;-69
2022/05/21 09:35:22;;;;;;;6.80;1.00;;;;;;;15.83;68.49;99241.69;4260371;28;21217;-67
2022/05/21 09:37:49;;;;;;;5.13;0.80;;;;;;;15.63;69.73;99239.81;4258343;28;20812;-66
2022/05/21 09:40:23;;;;;;;6.03;1.07;;;;;;;15.55;69.85;99249.94;4257120;28;25383;-70
2022/05/21 09:45:39;;;;;;;4.67;1.20;;;;;;;15.22;69.93;99244.53;4256350;28;20240;-66
2022/05/21 09:48:06;;;;;;;3.43;0.80;;;;;;;15.13;71.25;99249.28;4241202;28;24064;-71
2022/05/21 09:50:59;;;;;;;2.97;0.90;;;;;;;15.27;71.63;99260.84;4265556;28;20274;-70
2022/05/21 09:53:37;;;;;;;3.87;1.20;;;;;;;15.22;72.83;99239.19;4236764;28;20624;-69
2022/05/21 09:56:16;;;;;;;4.30;1.03;;;;;;;15.10;71.03;99257.72;4255646;28;23077;-69
2022/05/21 09:58:44;;;;;;;3.50;1.10;;;;;;;15.25;71.08;99254.88;4236751;28;21675;-68
2022/05/21 10:01:36;;;;;;;6.63;1.30;;;;;;;15.05;68.97;99258.31;4253193;28;22466;-70
2022/05/21 10:04:13;;;;;;;6.77;1.30;;;;;;;14.99;68.88;99278.72;4245119;28;20238;-71
2022/05/21 10:06:51;;;;;;;4.80;1.20;;;;;;;14.98;69.34;99271.72;4235298;28;23639;-69
2022/05/21 10:12:13;;;;;;;10.63;1.40;;;;;;;14.83;70.22;99284.44;4239330;28;20238;-71
2022/05/21 10:14:45;;;;;;;8.87;1.17;;;;;;;14.74;69.80;99275.75;4247198;28;20301;-72
2022/05/21 10:17:29;;;;;;;12.10;1.00;;;;;;;14.73;69.59;99303.56;4254965;28;20227;-69
2022/05/21 10:20:06;;;;;;;2.40;1.40;;;;;;;14.72;69.74;99315.28;4247478;28;20296;-67
2022/05/21 10:22:57;;;;;;;2.73;1.10;;;;;;;14.69;69.91;99315.69;4244070;28;20756;-67
2022/05/21 10:25:36;;;;;;;8.67;1.13;;;;;;;14.74;69.19;99313.25;4250326;28;25231;-70
2022/05/21 10:28:19;;;;;;;7.77;1.37;;;;;;;14.70;70.42;99317.38;4240642;28;21644;-73
2022/05/21 10:31:01;;;;;;;2.60;1.10;;;;;;;14.80;69.21;99310.78;4228589;28;20229;-73
2022/05/21 10:33:50;;;;;;;2.57;1.10;;;;;;;14.75;69.72;99311.41;4239664;28;20318;-71
2022/05/21 10:36:27;;;;;;;5.07;1.17;;;;;;;14.68;70.12;99324.78;4235765;28;20270;-68
2022/05/21 10:39:24;;;;;;;3.37;1.00;;;;;;;14.69;70.20;99304.97;4259105;28;20608;-73
2022/05/21 10:42:11;;;;;;;6.27;1.37;;;;;;;14.59;71.05;99312.56;4236557;28;20257;-66
2022/05/21 10:45:07;;;;;;;3.93;0.90;;;;;;;14.54;71.09;99325.72;4247508;28;20233;-68
2022/05/21 10:47:59;;;;;;;3.37;0.83;;;;;;;14.48;71.53;99321.94;4256037;28;20235;-69
2022/05/21 10:50:26;;;;;;;5.17;1.20;;;;;;;14.46;71.45;99341.91;4258375;28;22636;-72
2022/05/21 10:53:35;;;;;;;5.27;1.20;;;;;;;14.59;71.65;99351.91;4240419;28;20644;-70
2022/05/21 10:56:06;;;;;;;3.80;1.20;;;;;;;14.59;72.19;99350.06;4258936;28;21678;-73
2022/05/21 10:58:45;;;;;;;8.33;0.93;;;;;;;14.77;72.25;99347.69;4263759;28;20286;-70
2022/05/21 11:01:23;;;;;;;7.53;1.10;;;;;;;15.18;70.30;99362.03;4266771;28;22325;-67
2022/05/21 11:04:15;;;;;;;6.60;1.23;;;;;;;15.24;68.85;99352.34;4245665;28;20317;-69
2022/05/21 11:07:05;;;;;;;6.27;1.10;;;;;;;15.35;68.00;99349.09;4237351;28;20314;-70
2022/05/21 11:10:03;;;;;;;3.00;0.90;;;;;;;15.48;67.81;99335.72;4301182;28;20250;-69
2022/05/21 11:13:11;;;;;;;10.83;1.30;;;;;;;15.65;65.38;99356.78;4302800;28;20226;-66
2022/05/21 11:16:01;;;;;;;3.93;1.20;;;;;;;15.71;65.84;99362.19;4257712;28;20884;-69
2022/05/21 11:18:42;;;;;;;4.60;1.10;;;;;;;15.75;67.26;99378.69;4264732;28;21772;-69
2022/05/21 11:21:22;;;;;;;10.47;1.30;;;;;;;15.68;65.86;99377.81;4238266;28;20224;-68
2022/05/21 11:24:08;;;;;;;4.63;0.90;;;;;;;15.45;64.38;99370.16;4245520;28;20272;-71
2022/05/21 11:26:53;;;;;;;5.63;1.00;;;;;;;15.28;63.29;99383.09;4244260;28;20231;-69
2022/05/21 11:29:46;;;;;;;5.90;1.00;;;;;;;15.28;64.76;99380.41;4251373;28;20235;-66
2022/05/21 11:38:34;;;;;;;3.20;0.90;;;;;;;14.96;64.13;99402.38;4237577;28;20235;-75
2022/05/21 11:41:24;;;;;;;5.13;0.70;;;;;;;14.93;64.55;99396.56;4242402;28;21937;-68
2022/05/21 11:46:57;;;;;;;8.67;1.00;;;;;;;15.22;63.84;99402.66;4252273;28;20745;-71
2022/05/21 11:49:30;;;;;;;2.60;0.83;;;;;;;15.35;62.34;99394.66;4263739;28;20238;-69
2022/05/21 11:51:58;;;;;;;2.60;0.90;;;;;;;15.47;62.04;99409.13;4266936;28;22115;-69
2022/05/21 11:54:47;;;;;;;7.10;1.00;;;;;;;15.59;62.26;99394.13;4253553;28;21899;-69
2022/05/21 11:57:36;;;;;;;4.17;0.77;;;;;;;15.46;62.55;99402.13;4250835;28;20241;-68
2022/05/21 12:00:05;;;;;;;6.80;1.10;;;;;;;15.49;63.30;99395.53;4241477;28;20409;-68
2022/05/21 12:02:34;;;;;;;10.93;1.10;;;;;;;15.28;63.51;99407.22;4236738;28;20231;-67
2022/05/21 12:05:09;;;;;;;4.27;1.23;;;;;;;15.24;64.03;99405.97;4236771;28;20238;-71